Time,TemperatureF,DewpointF,PressureIn,WindDirection,WindDirectionDegrees,WindSpeedMPH,WindSpeedGustMPH,Humidity,HourlyPrecipIn,Conditions,Clouds,dailyrainin,SoftwareType,DateUTC
2013-04-12 00:00:00,38.7,34.0,29.89,WNW,296,0.0,0.0,84,0.00,,,0.00,weatherlink.com 1.10,2013-04-12 05:00:00,
2013-04-12 00:15:00,38.7,34.0,29.89,WNW,296,0.0,0.0,84,0.00,,,0.00,weatherlink.com 1.10,2013-04-12 05:15:00,
2013-04-12 00:30:00,38.4,34.0,29.89,WNW,296,0.0,0.0,85,0.00,,,0.00,weatherlink.com 1.10,2013-04-12 05:30:00,
2013-04-12 00:45:00,38.2,34.0,29.89,WNW,296,0.0,0.0,85,0.00,,,0.00,weatherlink.com 1.10,2013-04-12 05:45:00,
2013-04-12 01:00:00,38.0,34.0,29.89,WNW,296,0.0,0.0,86,0.00,,,0.00,weatherlink.com 1.10,2013-04-12 06:00:00,
2013-04-12 01:15:00,37.7,34.0,29.89,WNW,296,0.0,0.0,85,0.00,,,0.00,weatherlink.com 1.10,2013-04-12 06:15:00,
2013-04-12 01:30:00,37.5,34.0,29.89,WNW,296,0.0,0.0,86,0.00,,,0.00,weatherlink.com 1.10,2013-04-12 06:30:00,
2013-04-12 01:45:00,37.3,34.0,29.89,WNW,296,0.0,0.0,86,0.00,,,0.00,weatherlink.com 1.10,2013-04-12 06:45:00,
2013-04-12 02:00:00,37.3,34.0,29.89,WNW,296,0.0,0.0,86,0.00,,,0.00,weatherlink.com 1.10,2013-04-12 07:00:00,
2013-04-12 02:15:00,37.1,33.0,29.89,WNW,296,0.0,0.0,86,0.00,,,0.00,weatherlink.com 1.10,2013-04-12 07:15:00,
2013-04-12 02:30:00,37.0,34.0,29.89,WNW,296,0.0,0.0,87,0.00,,,0.00,weatherlink.com 1.10,2013-04-12 07:30:00,
2013-04-12 02:45:00,36.7,33.0,29.89,WNW,296,0.0,0.0,87,0.00,,,0.00,weatherlink.com 1.10,2013-04-12 07:45:00,
2013-04-12 03:01:00,36.4,33.0,29.89,WNW,296,0.0,0.0,88,0.00,,,0.00,weatherlink.com 1.10,2013-04-12 08:01:00,
2013-04-12 03:16:00,36.3,33.0,29.90,North,355,4.0,6.0,88,0.00,,,0.00,weatherlink.com 1.10,2013-04-12 08:16:00,
2013-04-12 03:31:00,39.6,35.0,29.90,NNW,337,4.0,6.0,82,0.00,,,0.00,weatherlink.com 1.10,2013-04-12 08:31:00,
2013-04-12 03:46:00,39.9,34.0,29.91,North,349,2.0,4.0,80,0.00,,,0.00,weatherlink.com 1.10,2013-04-12 08:46:00,
2013-04-12 04:01:00,39.8,34.0,29.91,North,351,0.0,4.0,80,0.00,,,0.00,weatherlink.com 1.10,2013-04-12 09:01:00,
2013-04-12 04:16:00,39.6,34.0,29.92,North,351,0.0,2.0,80,0.00,,,0.00,weatherlink.com 1.10,2013-04-12 09:16:00,
2013-04-12 05:01:00,37.7,33.0,29.95,North,351,0.0,3.0,84,0.00,,,0.00,weatherlink.com 1.10,2013-04-12 10:01:00,
2013-04-12 05:31:00,39.0,32.0,29.96,NNW,344,2.0,5.0,77,0.00,,,0.00,weatherlink.com 1.10,2013-04-12 10:31:00,
2013-04-12 05:46:00,39.1,32.0,29.97,NNW,347,4.0,8.0,76,0.00,,,0.00,weatherlink.com 1.10,2013-04-12 10:46:00,
2013-04-12 06:16:00,38.7,32.0,29.99,North,355,0.0,5.0,76,0.00,,,0.00,weatherlink.com 1.10,2013-04-12 11:16:00,
2013-04-12 06:31:00,38.2,32.0,29.99,North,355,3.0,3.0,77,0.00,,,0.00,weatherlink.com 1.10,2013-04-12 11:31:00,
2013-04-12 07:01:00,37.1,31.0,30.01,North,355,1.0,3.0,79,0.00,,,0.00,weatherlink.com 1.10,2013-04-12 12:01:00,
2013-04-12 07:16:00,36.5,31.0,30.02,North,355,1.0,2.0,81,0.00,,,0.00,weatherlink.com 1.10,2013-04-12 12:16:00,
2013-04-12 07:46:00,38.4,32.0,30.03,NNW,342,3.0,6.0,79,0.00,,,0.00,weatherlink.com 1.10,2013-04-12 12:46:00,
2013-04-12 08:01:00,39.7,33.0,30.03,NNW,330,3.0,5.0,76,0.00,,,0.00,weatherlink.com 1.10,2013-04-12 13:01:00,
2013-04-12 08:16:00,40.7,32.0,30.05,NNW,331,5.0,8.0,72,0.00,,,0.00,weatherlink.com 1.10,2013-04-12 13:16:00,
2013-04-12 08:31:00,41.2,31.0,30.05,NNW,327,8.0,12.0,68,0.00,,,0.00,weatherlink.com 1.10,2013-04-12 13:31:00,
2013-04-12 08:46:00,41.6,30.0,30.06,NW,304,5.0,12.0,63,0.00,,,0.00,weatherlink.com 1.10,2013-04-12 13:46:00,
2013-04-12 09:01:00,42.4,30.0,30.06,NNW,335,9.0,11.0,61,0.00,,,0.00,weatherlink.com 1.10,2013-04-12 14:01:00,
2013-04-12 09:31:00,43.3,30.0,30.08,NNW,343,4.0,12.0,60,0.00,,,0.00,weatherlink.com 1.10,2013-04-12 14:31:00,
2013-04-12 09:46:00,43.3,30.0,30.08,NW,314,8.0,13.0,59,0.00,,,0.00,weatherlink.com 1.10,2013-04-12 14:46:00,
2013-04-12 10:01:00,44.2,30.0,30.08,NW,313,10.0,13.0,58,0.00,,,0.00,weatherlink.com 1.10,2013-04-12 15:01:00,
2013-04-12 10:16:00,44.6,30.0,30.08,North,5,7.0,12.0,58,0.00,,,0.00,weatherlink.com 1.10,2013-04-12 15:16:00,
2013-04-12 10:31:00,45.7,31.0,30.08,North,5,7.0,14.0,57,0.00,,,0.00,weatherlink.com 1.10,2013-04-12 15:31:00,
2013-04-12 10:46:00,46.2,31.0,30.08,WNW,295,5.0,14.0,56,0.00,,,0.00,weatherlink.com 1.10,2013-04-12 15:46:00,
2013-04-12 11:02:00,47.0,31.0,30.08,North,355,10.0,14.0,54,0.00,,,0.00,weatherlink.com 1.10,2013-04-12 16:02:00,
2013-04-12 11:16:00,47.6,31.0,30.09,North,360,6.0,17.0,54,0.00,,,0.00,weatherlink.com 1.10,2013-04-12 16:16:00,
2013-04-12 11:31:00,48.4,30.0,30.08,NNW,345,7.0,13.0,50,0.00,,,0.00,weatherlink.com 1.10,2013-04-12 16:31:00,
2013-04-12 11:46:00,49.2,31.0,30.08,NW,318,6.0,14.0,49,0.00,,,0.00,weatherlink.com 1.10,2013-04-12 16:46:00,
2013-04-12 12:01:00,49.6,31.0,30.08,NNW,342,7.0,16.0,49,0.00,,,0.00,weatherlink.com 1.10,2013-04-12 17:01:00,
2013-04-12 12:16:00,50.3,31.0,30.09,NW,323,6.0,11.0,47,0.00,,,0.00,weatherlink.com 1.10,2013-04-12 17:16:00,
2013-04-12 12:31:00,51.2,31.0,30.08,WNW,294,3.0,15.0,46,0.00,,,0.00,weatherlink.com 1.10,2013-04-12 17:31:00,
2013-04-12 12:47:00,52.3,32.0,30.08,West,272,6.0,11.0,46,0.00,,,0.00,weatherlink.com 1.10,2013-04-12 17:47:00,
2013-04-12 14:32:00,56.9,32.0,30.06,West,271,2.0,13.0,39,0.00,,,0.00,weatherlink.com 1.10,2013-04-12 19:32:00,
2013-04-12 15:02:00,58.1,32.0,30.04,NNW,329,6.0,11.0,37,0.00,,,0.00,weatherlink.com 1.10,2013-04-12 20:02:00,
2013-04-12 15:17:00,58.2,32.0,30.04,North,351,4.0,11.0,38,0.00,,,0.00,weatherlink.com 1.10,2013-04-12 20:17:00,
2013-04-12 15:32:00,58.6,34.0,30.02,NNW,344,7.0,12.0,39,0.00,,,0.00,weatherlink.com 1.10,2013-04-12 20:32:00,
2013-04-12 15:47:00,58.9,34.0,30.02,NNW,338,4.0,10.0,39,0.00,,,0.00,weatherlink.com 1.10,2013-04-12 20:47:00,
2013-04-12 16:02:00,58.9,32.0,30.02,NNW,347,5.0,11.0,36,0.00,,,0.00,weatherlink.com 1.10,2013-04-12 21:02:00,
2013-04-12 16:17:00,59.4,34.0,30.01,NNE,13,6.0,11.0,38,0.00,,,0.00,weatherlink.com 1.10,2013-04-12 21:17:00,
2013-04-12 16:32:00,59.9,33.0,30.01,NW,317,7.0,13.0,37,0.00,,,0.00,weatherlink.com 1.10,2013-04-12 21:32:00,
2013-04-12 16:47:00,60.1,34.0,30.00,SW,229,2.0,4.0,38,0.00,,,0.00,weatherlink.com 1.10,2013-04-12 21:47:00,
2013-04-12 17:02:00,60.7,33.0,30.00,NW,313,5.0,7.0,35,0.00,,,0.00,weatherlink.com 1.10,2013-04-12 22:02:00,
2013-04-12 17:17:00,60.9,34.0,30.00,West,279,2.0,8.0,36,0.00,,,0.00,weatherlink.com 1.10,2013-04-12 22:17:00,
2013-04-12 17:32:00,61.7,34.0,30.01,NNW,335,4.0,7.0,36,0.00,,,0.00,weatherlink.com 1.10,2013-04-12 22:32:00,
2013-04-12 17:47:00,61.1,34.0,30.01,NNW,333,2.0,7.0,37,0.00,,,0.00,weatherlink.com 1.10,2013-04-12 22:47:00,
2013-04-12 18:02:00,61.1,33.0,30.01,NE,55,2.0,8.0,35,0.00,,,0.00,weatherlink.com 1.10,2013-04-12 23:02:00,
2013-04-12 18:17:00,61.6,34.0,30.01,NW,311,1.0,4.0,35,0.00,,,0.00,weatherlink.com 1.10,2013-04-12 23:17:00,
2013-04-12 18:32:00,61.2,34.0,30.01,NE,48,2.0,4.0,36,0.00,,,0.00,weatherlink.com 1.10,2013-04-12 23:32:00,
2013-04-12 18:47:00,60.8,33.0,30.01,North,5,1.0,5.0,36,0.00,,,0.00,weatherlink.com 1.10,2013-04-12 23:47:00,
2013-04-12 19:02:00,60.7,34.0,30.01,NE,40,0.0,5.0,37,0.00,,,0.00,weatherlink.com 1.10,2013-04-13 00:02:00,
2013-04-12 19:17:00,60.0,34.0,30.00,NNE,15,2.0,3.0,38,0.00,,,0.00,weatherlink.com 1.10,2013-04-13 00:17:00,
2013-04-12 19:32:00,59.5,34.0,30.00,NNE,16,0.0,3.0,39,0.00,,,0.00,weatherlink.com 1.10,2013-04-13 00:32:00,
2013-04-12 19:47:00,58.6,35.0,30.00,NNE,16,1.0,2.0,42,0.00,,,0.00,weatherlink.com 1.10,2013-04-13 00:47:00,
2013-04-12 20:02:00,57.5,37.0,30.00,NNE,16,0.0,1.0,46,0.00,,,0.00,weatherlink.com 1.10,2013-04-13 01:02:00,
2013-04-12 20:17:00,57.1,36.0,30.01,NNE,16,0.0,2.0,46,0.00,,,0.00,weatherlink.com 1.10,2013-04-13 01:17:00,
2013-04-12 20:32:00,56.5,37.0,30.02,NNE,17,0.0,2.0,48,0.00,,,0.00,weatherlink.com 1.10,2013-04-13 01:32:00,
2013-04-12 20:47:00,56.1,38.0,30.02,NNE,17,0.0,1.0,51,0.00,,,0.00,weatherlink.com 1.10,2013-04-13 01:47:00,
2013-04-12 21:02:00,56.0,37.0,30.03,NNE,17,0.0,3.0,50,0.00,,,0.00,weatherlink.com 1.10,2013-04-13 02:02:00,
2013-04-12 21:17:00,55.6,38.0,30.03,NNE,17,1.0,2.0,53,0.00,,,0.00,weatherlink.com 1.10,2013-04-13 02:17:00,
2013-04-12 21:32:00,55.1,38.0,30.04,NNE,17,1.0,2.0,53,0.00,,,0.00,weatherlink.com 1.10,2013-04-13 02:32:00,
2013-04-12 21:47:00,54.5,38.0,30.04,NNE,17,0.0,1.0,55,0.00,,,0.00,weatherlink.com 1.10,2013-04-13 02:47:00,
2013-04-12 22:02:00,53.8,40.0,30.05,NNE,17,0.0,0.0,59,0.00,,,0.00,weatherlink.com 1.10,2013-04-13 03:02:00,
2013-04-12 22:18:00,53.4,39.0,30.05,NNE,17,0.0,1.0,58,0.00,,,0.00,weatherlink.com 1.10,2013-04-13 03:18:00,
2013-04-12 22:33:00,53.1,39.0,30.05,NNE,17,0.0,2.0,59,0.00,,,0.00,weatherlink.com 1.10,2013-04-13 03:33:00,
2013-04-12 22:48:00,52.8,39.0,30.05,NNE,17,1.0,1.0,59,0.00,,,0.00,weatherlink.com 1.10,2013-04-13 03:48:00,
2013-04-12 23:03:00,53.1,38.0,30.05,NNE,17,0.0,2.0,58,0.00,,,0.00,weatherlink.com 1.10,2013-04-13 04:03:00,
2013-04-12 23:18:00,52.7,38.0,30.06,NNE,17,0.0,2.0,58,0.00,,,0.00,weatherlink.com 1.10,2013-04-13 04:18:00,
2013-04-12 23:33:00,52.6,39.0,30.05,NNE,17,0.0,1.0,60,0.00,,,0.00,weatherlink.com 1.10,2013-04-13 04:33:00,
2013-04-12 23:48:00,52.1,39.0,30.06,NNE,17,0.0,1.0,62,0.00,,,0.00,weatherlink.com 1.10,2013-04-13 04:48:00,